createdAt,value
2024-05-09T00:00:44.422Z,14.25
2024-05-09T00:03:12.289Z,14.30
2024-05-09T00:05:44.285Z,14.27
2024-05-09T00:08:11.913Z,15.05
2024-05-09T00:10:40.424Z,14.93
2024-05-09T00:13:08.709Z,14.60
2024-05-09T00:15:36.754Z,15.85
2024-05-09T00:18:06.045Z,16.00
2024-05-09T00:20:38.667Z,14.90
2024-05-09T00:23:12.792Z,15.10
2024-05-09T00:25:42.546Z,15.05
2024-05-09T00:28:10.332Z,14.65
2024-05-09T00:30:37.736Z,14.57
2024-05-09T00:33:07.015Z,14.15
2024-05-09T00:35:35.709Z,15.35
2024-05-09T00:38:03.309Z,14.82
2024-05-09T00:40:39.856Z,15.23
2024-05-09T00:43:14.319Z,14.75
2024-05-09T00:45:42.517Z,15.82
2024-05-09T00:48:14.067Z,15.43
2024-05-09T00:50:45.070Z,16.58
2024-05-09T00:53:14.883Z,16.65
2024-05-09T00:55:42.757Z,16.33
2024-05-09T00:58:12.448Z,15.70
2024-05-09T01:03:44.786Z,16.20
2024-05-09T01:06:12.816Z,16.85
2024-05-09T01:08:39.814Z,16.88
2024-05-09T01:11:07.789Z,16.13
2024-05-09T01:13:34.717Z,16.13
2024-05-09T01:16:02.269Z,16.55
2024-05-09T01:18:30.359Z,16.30
2024-05-09T01:20:57.785Z,15.85
2024-05-09T01:23:24.851Z,17.08
2024-05-09T01:25:51.936Z,17.13
2024-05-09T01:28:21.692Z,16.67
2024-05-09T01:33:15.763Z,14.35
2024-05-09T01:35:43.350Z,15.32
2024-05-09T01:38:13.852Z,15.07
2024-05-09T01:40:41.240Z,14.57
2024-05-09T01:43:09.644Z,14.88
2024-05-09T01:45:38.240Z,13.93
2024-05-09T01:48:05.979Z,14.75
2024-05-09T01:50:40.240Z,14.07
2024-05-09T01:53:11.375Z,13.70
2024-05-09T01:55:39.106Z,14.25
2024-05-09T01:58:06.247Z,15.15
2024-05-09T02:00:39.402Z,14.88
2024-05-09T02:03:11.259Z,14.30
2024-05-09T02:05:40.741Z,14.20
2024-05-09T02:08:12.190Z,12.88
2024-05-09T02:10:39.154Z,13.48
2024-05-09T02:13:07.813Z,13.27
2024-05-09T02:15:34.854Z,14.15
2024-05-09T02:18:02.007Z,13.07
2024-05-09T02:20:35.568Z,13.25
2024-05-09T02:23:05.104Z,12.98
2024-05-09T02:25:33.002Z,13.25
2024-05-09T02:28:00.271Z,12.93
2024-05-09T02:30:37.822Z,12.23
2024-05-09T02:33:09.266Z,12.77
2024-05-09T02:35:37.464Z,13.82
2024-05-09T02:38:04.727Z,14.55
2024-05-09T02:40:38.000Z,14.25
2024-05-09T02:43:07.971Z,13.98
2024-05-09T02:45:35.405Z,14.65
2024-05-09T02:48:02.752Z,14.23
2024-05-09T02:50:37.146Z,14.07
2024-05-09T02:53:09.935Z,13.38
2024-05-09T02:55:38.240Z,13.68
2024-05-09T02:58:07.119Z,13.13
2024-05-09T03:00:38.923Z,13.30
2024-05-09T03:03:10.399Z,12.82
2024-05-09T03:05:40.080Z,13.02
2024-05-09T03:08:07.474Z,11.77
2024-05-09T03:10:36.417Z,12.80
2024-05-09T03:13:14.558Z,11.75
2024-05-09T03:15:43.639Z,11.77
2024-05-09T03:18:11.673Z,11.75
2024-05-09T03:20:39.689Z,12.13
2024-05-09T03:23:08.467Z,11.23
2024-05-09T03:25:36.334Z,12.45
2024-05-09T03:28:03.671Z,11.95
2024-05-09T03:30:39.493Z,12.02
2024-05-09T03:33:15.375Z,10.95
2024-05-09T03:35:46.403Z,10.55
2024-05-09T03:38:13.991Z,11.02
2024-05-09T03:40:46.474Z,10.65
2024-05-09T03:43:14.471Z,9.75
2024-05-09T03:45:45.760Z,10.27
2024-05-09T03:48:13.334Z,10.27
2024-05-09T03:50:40.901Z,12.18
2024-05-09T03:53:11.203Z,11.07
2024-05-09T03:55:38.396Z,10.65
2024-05-09T03:58:06.235Z,11.45
2024-05-09T04:00:38.110Z,10.90
2024-05-09T04:03:09.719Z,10.85
2024-05-09T04:05:40.713Z,10.95
2024-05-09T04:08:09.105Z,11.80
2024-05-09T04:10:36.167Z,12.40
2024-05-09T04:13:04.244Z,11.60
2024-05-09T04:15:31.769Z,11.85
2024-05-09T04:17:59.200Z,13.15
2024-05-09T04:25:23.141Z,8.73
2024-05-09T04:27:50.056Z,9.30
2024-05-09T04:30:25.537Z,10.30
2024-05-09T04:32:58.011Z,9.77
2024-05-09T04:35:25.063Z,9.85
2024-05-09T04:37:52.036Z,9.38
2024-05-09T04:40:27.793Z,10.32
2024-05-09T04:42:59.614Z,10.18
2024-05-09T04:45:26.556Z,9.50
2024-05-09T04:47:54.637Z,9.60
2024-05-09T04:50:30.009Z,9.20
2024-05-09T04:53:03.341Z,9.85
2024-05-09T04:55:30.601Z,9.95
2024-05-09T04:57:57.677Z,9.30
2024-05-09T05:00:32.050Z,10.48
2024-05-09T05:03:10.649Z,9.82
2024-05-09T05:05:41.146Z,10.32
2024-05-09T05:08:15.312Z,11.07
2024-05-09T05:10:43.457Z,10.90
2024-05-09T05:13:22.636Z,10.45
2024-05-09T05:15:57.491Z,11.15
2024-05-09T05:18:26.732Z,10.77
2024-05-09T05:20:55.908Z,10.93
2024-05-09T05:23:23.749Z,10.93
2024-05-09T05:25:55.424Z,10.70
2024-05-09T05:28:22.842Z,10.50
2024-05-09T05:30:50.333Z,10.77
2024-05-09T05:33:22.561Z,10.55
2024-05-09T05:35:50.016Z,11.32
2024-05-09T05:38:17.051Z,10.35
2024-05-09T05:40:44.146Z,11.65
2024-05-09T05:43:17.277Z,10.45
2024-05-09T05:45:44.666Z,10.25
2024-05-09T05:48:13.392Z,10.40
2024-05-09T05:50:40.444Z,11.00
2024-05-09T05:53:08.482Z,11.73
2024-05-09T05:55:36.858Z,11.95
2024-05-09T05:58:04.012Z,11.57
2024-05-09T06:00:38.191Z,14.48
2024-05-09T06:05:36.149Z,14.13
2024-05-09T06:08:03.097Z,14.82
2024-05-09T06:10:37.601Z,13.48
2024-05-09T06:13:07.387Z,12.43
2024-05-09T06:15:34.518Z,13.77
2024-05-09T06:18:01.860Z,13.18
2024-05-09T06:20:35.643Z,14.00
2024-05-09T06:23:06.186Z,13.88
2024-05-09T06:25:33.733Z,15.35
2024-05-09T06:28:01.559Z,14.70
2024-05-09T06:30:37.074Z,15.00
2024-05-09T06:33:08.986Z,16.50
2024-05-09T06:35:37.085Z,16.70
2024-05-09T06:38:04.830Z,15.77
2024-05-09T06:40:37.990Z,15.65
2024-05-09T06:43:14.319Z,16.85
2024-05-09T06:45:41.735Z,15.82
2024-05-09T06:48:10.130Z,15.93
2024-05-09T06:50:39.320Z,15.05
2024-05-09T06:53:07.783Z,17.50
2024-05-09T06:55:34.946Z,16.55
2024-05-09T06:58:02.043Z,16.40
2024-05-09T07:00:35.783Z,16.92
2024-05-09T07:03:16.541Z,17.13
2024-05-09T07:05:46.245Z,17.65
2024-05-09T07:08:14.207Z,18.33
2024-05-09T07:10:41.490Z,17.83
2024-05-09T07:13:12.287Z,18.10
2024-05-09T07:15:40.299Z,18.98
2024-05-09T07:18:18.603Z,18.48
2024-05-09T07:20:47.526Z,18.65
2024-05-09T07:23:15.686Z,18.05
2024-05-09T07:25:43.191Z,18.17
2024-05-09T07:28:15.578Z,17.55
2024-05-09T07:30:43.195Z,17.02
2024-05-09T07:33:15.866Z,16.70
2024-05-09T07:35:43.070Z,15.63
2024-05-09T07:38:10.027Z,16.42
2024-05-09T07:40:37.275Z,13.85
2024-05-09T07:43:08.379Z,15.02
2024-05-09T07:52:32.706Z,11.35
2024-05-09T07:55:56.030Z,14.27
2024-05-09T07:58:27.716Z,14.77
2024-05-09T08:00:55.212Z,14.10
2024-05-09T08:03:23.437Z,13.52
2024-05-09T08:05:51.916Z,13.63
2024-05-09T08:08:18.971Z,14.07
2024-05-09T08:10:46.579Z,13.68
2024-05-09T08:13:13.952Z,12.73
2024-05-09T08:15:41.499Z,14.07
2024-05-09T08:18:11.656Z,13.88
2024-05-09T08:20:39.203Z,13.73
2024-05-09T08:23:06.528Z,14.18
2024-05-09T08:25:35.475Z,14.38
2024-05-09T08:28:04.830Z,13.27
2024-05-09T08:33:08.371Z,13.50
2024-05-09T08:35:35.884Z,13.48
2024-05-09T08:38:04.500Z,13.30
2024-05-09T08:40:35.804Z,13.20
2024-05-09T08:43:09.835Z,11.82
2024-05-09T08:45:42.656Z,13.00
2024-05-09T08:48:13.873Z,13.00
2024-05-09T08:50:42.261Z,13.13
2024-05-09T08:53:09.626Z,13.82
2024-05-09T08:55:40.607Z,12.13
2024-05-09T08:58:16.470Z,12.60
2024-05-09T09:00:45.029Z,12.18
2024-05-09T09:03:18.942Z,13.02
2024-05-09T09:06:08.561Z,12.77
2024-05-09T09:08:39.108Z,10.65
2024-05-09T09:11:06.112Z,10.60
2024-05-09T09:13:33.095Z,9.45
2024-05-09T09:16:01.227Z,9.20
2024-05-09T09:18:30.325Z,7.72
2024-05-09T09:20:57.737Z,7.13
2024-05-09T09:23:25.386Z,6.53
2024-05-09T09:25:52.309Z,6.45
2024-05-09T09:28:23.172Z,6.28
2024-05-09T09:30:51.494Z,6.60
2024-05-09T09:33:18.855Z,6.32
2024-05-09T09:35:45.995Z,6.80
2024-05-09T09:38:17.771Z,6.70
2024-05-09T09:40:50.106Z,6.78
2024-05-09T09:43:22.124Z,6.70
2024-05-09T09:45:55.181Z,6.93
2024-05-09T09:48:23.064Z,7.47
2024-05-09T09:50:52.542Z,8.10
2024-05-09T09:53:20.108Z,7.72
2024-05-09T09:55:48.292Z,8.13
2024-05-09T09:58:18.148Z,7.05
2024-05-09T10:00:45.711Z,8.73
2024-05-09T10:03:12.966Z,8.48
2024-05-09T10:05:42.210Z,9.68
2024-05-09T10:08:12.487Z,9.68
2024-05-09T10:10:39.974Z,8.48
2024-05-09T10:13:08.668Z,9.43
2024-05-09T10:15:52.344Z,8.70
2024-05-09T10:18:28.208Z,8.73
2024-05-09T10:20:57.615Z,7.95
2024-05-09T10:23:29.694Z,7.63
2024-05-09T10:26:01.849Z,8.60
2024-05-09T10:28:29.966Z,8.95
2024-05-09T10:31:11.134Z,9.20
2024-05-09T10:33:52.528Z,9.43
2024-05-09T10:36:25.082Z,8.65
2024-05-09T10:38:53.927Z,8.38
2024-05-09T10:41:22.151Z,8.90
2024-05-09T10:43:50.193Z,9.23
2024-05-09T10:46:20.553Z,8.95
2024-05-09T10:48:48.657Z,9.63
2024-05-09T10:51:17.016Z,9.45
2024-05-09T10:53:45.916Z,8.55
2024-05-09T10:56:17.122Z,7.97
2024-05-09T10:58:44.366Z,9.20
2024-05-09T11:01:12.552Z,9.15
2024-05-09T11:03:40.257Z,9.88
2024-05-09T11:06:09.831Z,10.13
2024-05-09T11:08:37.100Z,10.05
2024-05-09T11:11:07.794Z,9.18
2024-05-09T11:13:37.286Z,8.75
2024-05-09T11:16:06.469Z,9.93
2024-05-09T11:18:37.915Z,9.65
2024-05-09T11:21:13.398Z,11.00
2024-05-09T11:23:40.951Z,10.32
2024-05-09T11:26:07.948Z,9.77
2024-05-09T11:28:34.868Z,11.63
2024-05-09T11:31:09.744Z,11.30
2024-05-09T11:33:43.478Z,12.10
2024-05-09T11:36:11.140Z,12.60
2024-05-09T11:38:38.071Z,12.25
2024-05-09T11:41:05.828Z,12.98
2024-05-09T11:43:33.257Z,12.38
2024-05-09T11:46:01.045Z,12.20
2024-05-09T11:48:28.559Z,12.40
2024-05-09T11:50:56.488Z,13.85
2024-05-09T11:53:23.392Z,11.50
2024-05-09T11:55:50.399Z,14.02
2024-05-09T11:58:18.731Z,15.73
2024-05-09T12:00:46.973Z,14.73
2024-05-09T12:03:14.538Z,14.57
2024-05-09T12:05:41.842Z,14.98
2024-05-09T12:08:09.235Z,16.23
2024-05-09T12:10:37.037Z,15.35
2024-05-09T12:13:06.275Z,13.73
2024-05-09T12:15:37.517Z,14.23
2024-05-09T12:18:08.737Z,14.18
2024-05-09T12:20:39.068Z,14.60
2024-05-09T12:23:08.910Z,14.75
2024-05-09T12:25:37.367Z,13.32
2024-05-09T12:28:04.631Z,13.57
2024-05-09T12:30:37.483Z,13.35
2024-05-09T12:33:12.539Z,13.52
2024-05-09T12:35:43.428Z,12.52
2024-05-09T12:38:12.894Z,12.88
2024-05-09T12:40:39.894Z,13.70
2024-05-09T12:43:08.860Z,12.80
2024-05-09T12:45:37.637Z,12.25
2024-05-09T12:48:08.368Z,14.35
2024-05-09T12:50:36.411Z,14.73
2024-05-09T12:53:04.640Z,14.80
2024-05-09T12:55:43.838Z,14.40
2024-05-09T12:58:17.430Z,14.02
2024-05-09T13:00:45.322Z,15.13
2024-05-09T13:03:12.791Z,13.27
2024-05-09T13:05:44.906Z,15.73
2024-05-09T13:08:13.009Z,13.90
2024-05-09T13:10:40.085Z,14.48
2024-05-09T13:13:07.374Z,15.52
2024-05-09T13:15:35.054Z,15.13
2024-05-09T13:18:03.705Z,15.07
2024-05-09T13:20:34.098Z,15.57
2024-05-09T13:23:08.094Z,15.60
2024-05-09T13:25:38.852Z,14.25
2024-05-09T13:28:06.666Z,15.55
2024-05-09T13:30:39.403Z,15.88
2024-05-09T13:33:13.764Z,14.88
2024-05-09T13:35:48.771Z,15.60
2024-05-09T13:38:21.432Z,14.30
2024-05-09T13:40:49.235Z,15.40
2024-05-09T13:43:17.798Z,15.50
2024-05-09T13:45:45.462Z,15.48
2024-05-09T13:48:12.872Z,16.13
2024-05-09T13:50:40.091Z,15.20
2024-05-09T13:53:08.566Z,15.40
2024-05-09T13:55:39.986Z,14.68
2024-05-09T13:58:07.781Z,15.13
2024-05-09T14:00:44.858Z,13.90
2024-05-09T14:03:16.644Z,13.05
2024-05-09T14:05:45.727Z,15.25
2024-05-09T14:08:15.421Z,15.63
2024-05-09T14:10:45.099Z,14.57
2024-05-09T14:15:57.739Z,14.30
2024-05-09T14:18:24.945Z,14.57
2024-05-09T14:20:51.908Z,14.30
2024-05-09T14:23:18.916Z,16.10
2024-05-09T14:25:49.055Z,13.75
2024-05-09T14:28:19.244Z,14.32
2024-05-09T14:30:46.368Z,12.50
2024-05-09T14:33:16.313Z,13.88
2024-05-09T14:35:43.355Z,14.15
2024-05-09T14:38:10.769Z,14.52
2024-05-09T14:40:42.376Z,14.93
2024-05-09T14:43:15.408Z,14.20
2024-05-09T14:45:43.705Z,14.38
2024-05-09T14:48:11.964Z,13.13
2024-05-09T14:50:40.560Z,14.60
2024-05-09T14:53:09.935Z,14.00
2024-05-09T14:58:07.776Z,15.15
2024-05-09T15:00:39.196Z,14.35
2024-05-09T15:03:08.956Z,13.90
2024-05-09T15:05:36.166Z,13.63
2024-05-09T15:08:06.914Z,14.63
2024-05-09T15:10:36.245Z,14.98
2024-05-09T15:13:04.796Z,13.82
2024-05-09T15:15:32.071Z,16.20
2024-05-09T15:18:00.017Z,16.38
2024-05-09T15:20:33.980Z,14.80
2024-05-09T15:23:04.732Z,15.63
2024-05-09T15:25:32.968Z,17.98
2024-05-09T15:28:00.037Z,17.33
2024-05-09T15:30:31.421Z,17.20
2024-05-09T15:33:01.259Z,16.58
2024-05-09T15:35:28.752Z,14.80
2024-05-09T15:37:56.272Z,15.82
2024-05-09T15:40:34.403Z,16.00
2024-05-09T15:43:06.894Z,16.15
2024-05-09T15:45:34.697Z,17.27
2024-05-09T15:48:03.257Z,16.92
2024-05-09T15:50:37.510Z,15.77
2024-05-09T15:53:08.894Z,15.65
2024-05-09T15:55:37.002Z,16.05
2024-05-09T15:58:05.158Z,15.00
2024-05-09T16:00:38.479Z,16.80
2024-05-09T16:03:13.582Z,16.23
2024-05-09T16:05:46.526Z,17.05
2024-05-09T16:08:14.848Z,16.55
2024-05-09T16:10:48.502Z,18.50
2024-05-09T16:13:16.892Z,16.92
2024-05-09T16:15:44.606Z,15.00
2024-05-09T16:18:12.247Z,16.67
2024-05-09T16:20:41.724Z,17.90
2024-05-09T16:23:11.114Z,17.30
2024-05-09T16:25:39.595Z,18.23
2024-05-09T16:28:09.958Z,18.02
2024-05-09T16:30:39.394Z,18.45
2024-05-09T16:33:07.904Z,17.58
2024-05-09T16:35:35.530Z,18.05
2024-05-09T16:38:03.195Z,19.55
2024-05-09T16:40:37.584Z,18.70
2024-05-09T16:43:08.422Z,17.67
2024-05-09T16:45:36.111Z,19.85
2024-05-09T16:48:03.805Z,19.73
2024-05-09T16:50:34.289Z,20.17
2024-05-09T16:53:04.382Z,21.33
2024-05-09T16:55:32.140Z,21.83
2024-05-09T16:57:59.551Z,22.05
2024-05-09T17:00:36.350Z,19.90
2024-05-09T17:03:09.905Z,20.45
2024-05-09T17:05:37.796Z,18.88
2024-05-09T17:08:05.439Z,19.92
2024-05-09T17:10:34.532Z,19.70
2024-05-09T17:13:04.648Z,19.92
2024-05-09T17:15:33.277Z,19.85
2024-05-09T17:18:01.546Z,20.27
2024-05-09T17:20:33.529Z,17.80
2024-05-09T17:23:04.836Z,16.73
2024-05-09T17:28:06.276Z,18.42
2024-05-09T17:30:36.687Z,18.38
2024-05-09T17:33:06.919Z,17.77
2024-05-09T17:35:34.824Z,16.60
2024-05-09T17:38:01.948Z,16.40
2024-05-09T17:40:33.734Z,17.30
2024-05-09T17:43:04.600Z,17.10
2024-05-09T17:45:32.587Z,17.80
2024-05-09T17:48:00.288Z,16.95
2024-05-09T17:50:34.984Z,16.35
2024-05-09T17:53:05.547Z,15.30
2024-05-09T17:55:33.051Z,17.25
2024-05-09T17:58:03.066Z,18.27
2024-05-09T18:00:37.674Z,17.73
2024-05-09T18:03:10.465Z,16.05
2024-05-09T18:05:38.180Z,16.90
2024-05-09T18:08:06.780Z,16.63
2024-05-09T18:10:37.944Z,16.33
2024-05-09T18:13:08.691Z,16.88
2024-05-09T18:15:36.692Z,16.60
2024-05-09T18:18:04.592Z,15.70
2024-05-09T18:20:40.544Z,15.80
2024-05-09T18:23:11.607Z,15.00
2024-05-09T18:25:38.649Z,17.10
2024-05-09T18:28:06.615Z,16.65
2024-05-09T18:30:36.437Z,16.13
2024-05-09T18:33:06.478Z,15.80
2024-05-09T18:35:34.885Z,15.18
2024-05-09T18:38:02.167Z,15.15
2024-05-09T18:40:34.353Z,16.40
2024-05-09T18:43:05.941Z,16.75
2024-05-09T18:45:34.344Z,16.05
2024-05-09T18:48:01.450Z,15.93
2024-05-09T18:50:34.968Z,14.85
2024-05-09T18:53:13.118Z,16.90
2024-05-09T18:55:41.554Z,16.20
2024-05-09T18:58:08.614Z,17.02
2024-05-09T19:00:38.703Z,17.20
2024-05-09T19:03:10.451Z,16.25
2024-05-09T19:05:40.659Z,17.80
2024-05-09T19:08:08.824Z,16.08
2024-05-09T19:10:37.416Z,13.75
2024-05-09T19:13:09.160Z,15.18
2024-05-09T19:15:39.912Z,16.30
2024-05-09T19:18:07.750Z,16.45
2024-05-09T19:20:36.484Z,13.98
2024-05-09T19:23:06.015Z,16.17
2024-05-09T19:25:33.788Z,16.45
2024-05-09T19:28:01.428Z,16.35
2024-05-09T19:30:37.862Z,16.33
2024-05-09T19:33:09.244Z,16.20
2024-05-09T19:35:37.061Z,15.68
2024-05-09T19:38:04.421Z,14.52
2024-05-09T19:40:33.519Z,14.95
2024-05-09T19:43:02.964Z,14.57
2024-05-09T19:45:30.852Z,15.48
2024-05-09T19:47:58.408Z,12.95
2024-05-09T19:50:32.893Z,14.82
2024-05-09T19:53:08.180Z,14.30
2024-05-09T19:55:35.303Z,12.60
2024-05-09T19:58:05.295Z,12.90
2024-05-09T20:00:36.704Z,14.40
2024-05-09T20:03:09.160Z,12.88
2024-05-09T20:05:37.155Z,14.00
2024-05-09T20:08:04.922Z,13.88
2024-05-09T20:10:34.208Z,13.55
2024-05-09T20:13:03.205Z,14.15
2024-05-09T20:15:31.924Z,14.27
2024-05-09T20:17:59.102Z,13.80
2024-05-09T20:20:36.366Z,13.55
2024-05-09T20:23:07.193Z,13.77
2024-05-09T20:25:34.129Z,14.13
2024-05-09T20:28:01.290Z,13.77
2024-05-09T20:30:32.435Z,12.63
2024-05-09T20:33:02.977Z,13.35
2024-05-09T20:35:34.572Z,14.27
2024-05-09T20:38:03.037Z,13.13
2024-05-09T20:40:35.259Z,12.75
2024-05-09T20:43:05.599Z,11.43
2024-05-09T20:45:33.119Z,13.13
2024-05-09T20:48:00.657Z,13.00
2024-05-09T20:50:36.423Z,12.15
2024-05-09T20:53:09.366Z,13.60
2024-05-09T20:55:36.747Z,14.20
2024-05-09T20:58:04.362Z,14.63
2024-05-09T21:00:39.782Z,13.85
2024-05-09T21:03:10.598Z,13.02
2024-05-09T21:05:38.667Z,14.20
2024-05-09T21:08:06.404Z,13.93
2024-05-09T21:10:35.266Z,14.35
2024-05-09T21:13:03.514Z,14.82
2024-05-09T21:15:31.656Z,14.65
2024-05-09T21:17:59.051Z,15.80
2024-05-09T21:20:31.631Z,16.83
2024-05-09T21:23:01.439Z,16.65
2024-05-09T21:25:29.062Z,15.90
2024-05-09T21:27:56.127Z,16.90
2024-05-09T21:30:32.523Z,17.05
2024-05-09T21:33:14.940Z,18.17
2024-05-09T21:35:43.720Z,19.30
2024-05-09T21:38:11.355Z,18.92
2024-05-09T21:40:38.884Z,19.30
2024-05-09T21:43:07.918Z,20.17
2024-05-09T21:45:35.989Z,20.40
2024-05-09T21:48:04.501Z,19.90
2024-05-09T21:50:38.697Z,17.70
2024-05-09T21:53:08.371Z,21.73
2024-05-09T21:55:35.446Z,20.52
2024-05-09T21:58:03.055Z,21.42
2024-05-09T22:00:36.135Z,20.85
2024-05-09T22:03:09.053Z,22.60
2024-05-09T22:05:37.751Z,20.52
2024-05-09T22:08:05.409Z,21.63
2024-05-09T22:10:35.069Z,21.83
2024-05-09T22:13:07.271Z,19.98
2024-05-09T22:15:40.028Z,19.48
2024-05-09T22:18:09.059Z,19.73
2024-05-09T22:20:39.386Z,20.23
2024-05-09T22:23:08.398Z,21.50
2024-05-09T22:25:36.225Z,19.98
2024-05-09T22:28:03.771Z,20.38
2024-05-09T22:30:36.100Z,19.60
2024-05-09T22:33:07.426Z,21.38
2024-05-09T22:35:34.649Z,19.08
2024-05-09T22:38:03.310Z,18.88
2024-05-09T22:40:38.990Z,20.13
2024-05-09T22:43:16.643Z,21.33
2024-05-09T22:45:43.940Z,21.42
2024-05-09T22:48:11.174Z,20.08
2024-05-09T22:50:38.278Z,21.20
2024-05-09T22:53:05.656Z,20.70
2024-05-09T22:55:32.771Z,20.48
2024-05-09T22:57:59.761Z,21.67
2024-05-09T23:00:31.582Z,19.65
2024-05-09T23:03:00.856Z,18.90
2024-05-09T23:05:28.392Z,20.48
2024-05-09T23:07:55.489Z,20.25
2024-05-09T23:10:30.854Z,17.90
2024-05-09T23:13:02.278Z,17.80
2024-05-09T23:15:29.418Z,18.17
2024-05-09T23:17:57.955Z,19.60
2024-05-09T23:20:33.861Z,19.58
2024-05-09T23:23:10.177Z,17.63
2024-05-09T23:25:38.416Z,18.92
2024-05-09T23:28:06.221Z,19.13
2024-05-09T23:30:38.102Z,19.02
2024-05-09T23:33:08.496Z,19.35
2024-05-09T23:35:35.864Z,19.08
2024-05-09T23:38:03.136Z,17.65
2024-05-09T23:40:38.382Z,18.70
2024-05-09T23:43:09.002Z,18.15
2024-05-09T23:45:36.472Z,17.88
2024-05-09T23:48:04.032Z,18.33
2024-05-09T23:50:35.821Z,19.00
2024-05-09T23:53:07.562Z,19.85
2024-05-09T23:55:35.743Z,17.02
2024-05-09T23:58:02.816Z,19.30
